Time;durP1;ratioP1;P1;durP2;ratioP2;P2;SDS_P1;SDS_P2;PMS_P1;PMS_P2;Temp;Humidity;BMP_temperature;BMP_pressure;BME280_temperature;BME280_humidity;BME280_pressure;Samples;Min_cycle;Max_cycle;Signal;HPM_P1;HPM_P2
2022/04/09 00:02:22;;;;;;;20.50;4.40;;;;;;;2.79;83.87;100380.06;5105756;28;20036;-55
2022/04/09 00:04:47;;;;;;;17.27;4.00;;;;;;;2.78;83.96;100383.63;5107988;28;20404;-57
2022/04/09 00:07:14;;;;;;;16.73;3.80;;;;;;;2.75;84.00;100388.25;5108066;28;20031;-56
2022/04/09 00:09:39;;;;;;;14.70;4.13;;;;;;;2.73;83.23;100392.78;5104947;28;20054;-57
2022/04/09 00:12:05;;;;;;;17.10;4.17;;;;;;;2.70;83.56;100386.00;5104416;28;20106;-57
2022/04/09 00:14:30;;;;;;;15.77;4.10;;;;;;;2.60;83.95;100403.38;5109717;28;20107;-57
2022/04/09 00:16:55;;;;;;;19.43;4.23;;;;;;;2.59;83.87;100404.34;5106527;28;20032;-55
2022/04/09 00:19:21;;;;;;;18.30;4.57;;;;;;;2.57;83.80;100411.50;5102912;28;20031;-56
2022/04/09 00:21:46;;;;;;;19.73;4.27;;;;;;;2.48;84.12;100413.91;5104674;28;20028;-56
2022/04/09 00:24:12;;;;;;;16.37;4.57;;;;;;;2.43;84.28;100418.66;5107678;28;20027;-56
2022/04/09 00:26:38;;;;;;;21.40;4.37;;;;;;;2.36;84.58;100425.31;5107935;28;20037;-56
2022/04/09 00:29:03;;;;;;;20.70;4.43;;;;;;;2.37;83.79;100429.59;5103197;28;20028;-55
2022/04/09 00:31:28;;;;;;;18.57;4.20;;;;;;;2.28;84.80;100431.13;5107212;28;20575;-58
2022/04/09 00:33:53;;;;;;;20.83;4.43;;;;;;;2.25;84.86;100429.56;5101883;28;20035;-56
2022/04/09 00:36:19;;;;;;;17.67;4.40;;;;;;;2.25;84.99;100434.81;5111284;28;20114;-55
2022/04/09 00:38:44;;;;;;;19.67;4.20;;;;;;;2.30;84.87;100437.06;5106766;28;20673;-55
2022/04/09 00:41:11;;;;;;;21.97;4.90;;;;;;;2.27;84.85;100442.56;5107543;28;20023;-54
2022/04/09 00:43:40;;;;;;;20.30;4.30;;;;;;;2.23;85.11;100447.16;5108784;28;20043;-55
2022/04/09 00:46:06;;;;;;;20.33;4.77;;;;;;;2.22;85.22;100445.50;5106520;28;20055;-55
2022/04/09 00:48:31;;;;;;;19.87;4.30;;;;;;;2.20;85.39;100452.63;5108677;28;20428;-56
2022/04/09 00:50:56;;;;;;;19.33;4.40;;;;;;;2.22;85.10;100453.34;5109743;28;20070;-56
2022/04/09 00:53:24;;;;;;;23.83;4.67;;;;;;;2.19;85.76;100464.06;5109309;28;20034;-55
2022/04/09 00:58:38;;;;;;;17.63;3.97;;;;;;;2.28;85.25;100463.34;5103008;28;20041;-56
2022/04/09 01:01:04;;;;;;;18.47;4.13;;;;;;;2.42;84.98;100477.19;5104769;28;20027;-55
2022/04/09 01:03:29;;;;;;;18.97;3.90;;;;;;;2.34;85.12;100476.91;5102362;28;20056;-57
2022/04/09 01:05:55;;;;;;;18.93;4.13;;;;;;;2.28;85.36;100486.06;5099877;28;20066;-56
2022/04/09 01:08:20;;;;;;;19.93;4.50;;;;;;;2.25;85.30;100491.53;5108396;28;20469;-56
2022/04/09 01:10:50;;;;;;;18.93;4.10;;;;;;;2.23;85.62;100499.47;5101680;28;20124;-56
2022/04/09 01:13:15;;;;;;;18.87;4.17;;;;;;;2.22;85.39;100503.06;5108976;28;20493;-56
2022/04/09 01:15:41;;;;;;;22.00;4.20;;;;;;;2.24;85.54;100501.19;5106696;28;20031;-56
2022/04/09 01:18:06;;;;;;;21.23;4.40;;;;;;;2.26;85.53;100504.50;5103568;28;20059;-56
2022/04/09 01:20:32;;;;;;;21.10;4.17;;;;;;;2.30;85.56;100510.34;5107691;28;20032;-56
2022/04/09 01:22:57;;;;;;;19.97;4.33;;;;;;;2.32;85.86;100515.47;5107405;28;20136;-56
2022/04/09 01:25:22;;;;;;;26.27;4.60;;;;;;;2.35;85.32;100518.69;5098732;28;20059;-55
2022/04/09 01:27:48;;;;;;;18.67;3.90;;;;;;;2.37;85.24;100529.03;5105674;28;20076;-57
2022/04/09 01:30:14;;;;;;;21.63;4.40;;;;;;;2.39;85.45;100527.13;5100544;28;20462;-56
2022/04/09 01:32:40;;;;;;;20.30;3.97;;;;;;;2.40;85.25;100534.88;5103590;28;20073;-56
2022/04/09 01:35:05;;;;;;;22.30;4.27;;;;;;;2.40;85.22;100536.63;5103386;28;20420;-56
2022/04/09 01:37:31;;;;;;;17.60;4.47;;;;;;;2.42;85.09;100540.00;5103582;28;20034;-56
2022/04/09 01:39:57;;;;;;;18.57;4.00;;;;;;;2.44;85.19;100543.31;5101592;28;20397;-57
2022/04/09 01:42:24;;;;;;;20.30;3.70;;;;;;;2.44;85.28;100542.47;5104487;28;20027;-56
2022/04/09 01:44:50;;;;;;;21.07;4.00;;;;;;;2.43;85.39;100546.88;5107585;28;20609;-55
2022/04/09 01:47:15;;;;;;;18.97;3.80;;;;;;;2.44;85.48;100556.41;5103265;28;20048;-57
2022/04/09 01:49:41;;;;;;;16.93;3.80;;;;;;;2.45;85.11;100555.44;5108141;28;20039;-57
2022/04/09 01:52:08;;;;;;;23.50;4.10;;;;;;;2.42;85.44;100566.16;5107276;28;20035;-56
2022/04/09 01:54:33;;;;;;;24.00;4.70;;;;;;;2.44;85.00;100572.09;5109038;28;20027;-56
2022/04/09 01:56:58;;;;;;;19.03;3.87;;;;;;;2.40;85.15;100573.28;5110770;28;20027;-56
2022/04/09 01:59:23;;;;;;;21.43;3.37;;;;;;;2.44;85.29;100579.97;5101841;28;20037;-55
2022/04/09 02:01:49;;;;;;;16.30;3.50;;;;;;;2.44;85.14;100574.72;5108369;28;20036;-55
2022/04/09 02:04:15;;;;;;;16.40;3.40;;;;;;;2.45;85.05;100583.41;5104422;28;20052;-56
2022/04/09 02:06:42;;;;;;;19.03;3.73;;;;;;;2.51;84.76;100585.59;5105656;28;20067;-56
2022/04/09 02:09:13;;;;;;;16.77;3.27;;;;;;;2.51;84.71;100593.44;5104330;28;20023;-55
2022/04/09 02:11:42;;;;;;;15.83;3.50;;;;;;;2.48;84.64;100594.50;5101955;28;20127;-56
2022/04/09 02:14:09;;;;;;;17.10;3.40;;;;;;;2.49;84.68;100598.78;5103920;28;20031;-57
2022/04/09 02:16:35;;;;;;;18.10;3.87;;;;;;;2.54;84.37;100601.91;5102571;28;20042;-57
2022/04/09 02:19:00;;;;;;;13.23;3.07;;;;;;;2.54;84.13;100604.50;5103163;28;20474;-56
2022/04/09 02:21:25;;;;;;;21.37;3.50;;;;;;;2.51;84.89;100614.38;5106779;28;20036;-56
2022/04/09 02:23:51;;;;;;;19.23;3.87;;;;;;;2.50;85.10;100610.91;5109524;28;20398;-56
2022/04/09 02:26:16;;;;;;;18.33;3.70;;;;;;;2.58;84.59;100622.59;5105459;28;20032;-56
2022/04/09 02:28:41;;;;;;;17.03;3.60;;;;;;;2.53;84.73;100628.19;5109401;28;20027;-56
2022/04/09 02:31:07;;;;;;;20.90;3.60;;;;;;;2.53;85.04;100625.56;5107369;28;20024;-55
2022/04/09 02:33:32;;;;;;;21.53;3.57;;;;;;;2.58;84.35;100625.22;5110908;28;20031;-56
2022/04/09 02:35:57;;;;;;;19.17;3.67;;;;;;;2.48;84.86;100623.28;5104785;28;20480;-54
2022/04/09 02:38:24;;;;;;;23.23;3.73;;;;;;;2.47;84.85;100631.25;5098954;28;20036;-54
2022/04/09 02:40:49;;;;;;;19.57;3.80;;;;;;;2.51;84.06;100643.16;5097891;28;20207;-56
2022/04/09 02:43:14;;;;;;;18.60;3.47;;;;;;;2.49;84.31;100648.50;5101816;28;20518;-57
2022/04/09 02:45:40;;;;;;;19.80;3.80;;;;;;;2.48;84.02;100654.69;5112182;28;20485;-56
2022/04/09 02:48:05;;;;;;;17.37;3.60;;;;;;;2.54;83.83;100658.63;5112374;28;20111;-56
2022/04/09 02:50:31;;;;;;;17.73;3.23;;;;;;;2.54;83.93;100651.63;5108438;28;20031;-55
2022/04/09 02:52:56;;;;;;;18.70;3.63;;;;;;;2.47;84.12;100653.00;5106350;28;20164;-55
2022/04/09 02:55:21;;;;;;;16.07;3.17;;;;;;;2.57;83.93;100662.81;5110118;28;20039;-56
2022/04/09 02:57:46;;;;;;;16.00;3.70;;;;;;;2.60;83.17;100665.19;5110801;28;20046;-56
2022/04/09 03:00:12;;;;;;;17.17;2.90;;;;;;;2.63;83.34;100672.81;5099629;28;20477;-56
2022/04/09 03:02:39;;;;;;;15.53;3.00;;;;;;;2.66;83.31;100677.84;5112638;27;20143;-57
2022/04/09 03:05:05;;;;;;;12.17;3.00;;;;;;;2.65;82.76;100677.00;5102587;27;20035;-56
2022/04/09 03:07:31;;;;;;;14.33;2.87;;;;;;;2.59;82.90;100687.09;5114011;28;20085;-55
2022/04/09 03:09:56;;;;;;;18.17;3.47;;;;;;;2.40;83.89;100688.44;5113568;28;20093;-57
2022/04/09 03:12:21;;;;;;;18.83;3.50;;;;;;;2.31;84.67;100683.88;5111511;28;20371;-56
2022/04/09 03:14:46;;;;;;;18.20;3.67;;;;;;;2.31;84.35;100689.13;5105025;28;20109;-56
2022/04/09 03:17:12;;;;;;;17.67;3.03;;;;;;;2.31;84.71;100694.34;5099239;28;20036;-55
2022/04/09 03:19:37;;;;;;;17.13;3.20;;;;;;;2.32;84.19;100690.78;5098514;28;21805;-56
2022/04/09 03:22:03;;;;;;;21.13;3.37;;;;;;;2.31;83.78;100695.16;5108283;27;20033;-57
2022/04/09 03:24:29;;;;;;;17.93;3.90;;;;;;;2.34;83.96;100699.34;5111663;28;20036;-56
2022/04/09 03:26:54;;;;;;;15.83;3.10;;;;;;;2.33;83.91;100698.53;5105099;28;20077;-56
2022/04/09 03:29:19;;;;;;;18.60;3.40;;;;;;;2.35;83.89;100706.25;5103635;28;20149;-56
2022/04/09 03:31:45;;;;;;;14.27;3.20;;;;;;;2.36;83.31;100713.19;5105476;28;20031;-56
2022/04/09 03:34:10;;;;;;;15.57;3.13;;;;;;;2.34;83.63;100713.28;5107995;28;20020;-56
2022/04/09 03:36:39;;;;;;;18.10;3.30;;;;;;;2.33;83.38;100716.00;5111837;28;20107;-55
2022/04/09 03:39:05;;;;;;;15.80;3.77;;;;;;;2.29;83.16;100713.59;5102640;28;20176;-56
2022/04/09 03:41:30;;;;;;;17.87;3.03;;;;;;;2.31;83.05;100723.97;5104042;28;20485;-57
2022/04/09 03:43:55;;;;;;;16.47;3.30;;;;;;;2.29;82.93;100724.06;5103204;28;20024;-55
2022/04/09 03:46:21;;;;;;;18.13;3.50;;;;;;;2.28;83.23;100721.56;5106746;28;20065;-57
2022/04/09 03:48:46;;;;;;;15.33;3.27;;;;;;;2.28;82.95;100732.84;5109400;28;20071;-56
2022/04/09 03:51:12;;;;;;;21.27;3.70;;;;;;;2.26;82.99;100723.44;5106805;28;20035;-56
2022/04/09 03:53:37;;;;;;;13.70;3.30;;;;;;;2.23;83.40;100729.72;5111439;28;20020;-56
2022/04/09 03:56:04;;;;;;;17.63;3.73;;;;;;;2.24;83.23;100739.28;5110317;28;20111;-56
2022/04/09 03:58:30;;;;;;;18.63;3.90;;;;;;;2.22;83.27;100738.53;5103360;28;20039;-55
2022/04/09 04:00:55;;;;;;;14.47;3.27;;;;;;;2.23;83.30;100734.97;5106713;28;20539;-57
2022/04/09 04:03:21;;;;;;;16.43;3.60;;;;;;;2.19;83.62;100749.22;5101094;28;20416;-56
2022/04/09 04:05:47;;;;;;;14.23;3.07;;;;;;;2.20;83.43;100760.50;5108959;28;20049;-55
2022/04/09 04:08:13;;;;;;;19.97;3.53;;;;;;;2.19;83.44;100757.09;5102864;28;20557;-57
2022/04/09 04:10:38;;;;;;;17.33;3.70;;;;;;;2.15;83.83;100759.09;5099212;27;20363;-56
2022/04/09 04:13:05;;;;;;;19.83;3.63;;;;;;;2.14;83.22;100761.81;5103840;28;20112;-57
2022/04/09 04:15:31;;;;;;;23.43;3.33;;;;;;;2.12;83.41;100756.66;5105650;28;20102;-56
2022/04/09 04:17:56;;;;;;;18.37;3.83;;;;;;;2.13;83.43;100765.38;5104440;28;20481;-55
2022/04/09 04:20:23;;;;;;;17.87;3.60;;;;;;;2.12;83.33;100776.78;5102613;28;20051;-56
2022/04/09 04:22:51;;;;;;;19.83;4.10;;;;;;;2.12;83.39;100779.41;5101060;28;20035;-57
2022/04/09 04:25:17;;;;;;;17.53;3.83;;;;;;;2.00;84.07;100784.53;5101044;28;20069;-55
2022/04/09 04:27:49;;;;;;;20.23;3.43;;;;;;;2.05;83.98;100788.59;5102763;28;20032;-57
2022/04/09 04:30:16;;;;;;;18.33;4.20;;;;;;;1.97;84.19;100795.19;5103215;28;20130;-55
2022/04/09 04:32:42;;;;;;;16.90;4.17;;;;;;;1.99;84.35;100788.09;5104811;28;20415;-57
2022/04/09 04:35:08;;;;;;;19.13;3.80;;;;;;;1.97;84.02;100789.97;5097857;28;20031;-57
2022/04/09 04:37:41;;;;;;;17.63;3.90;;;;;;;1.96;84.66;100796.16;5101994;28;20028;-56
2022/04/09 04:40:07;;;;;;;;;;;;;;;2.11;83.65;100801.25;5104754;28;20058;-56
2022/04/09 04:42:33;;;;;;;20.67;3.77;;;;;;;2.07;83.88;100798.00;5103009;28;20373;-57
2022/04/09 04:44:58;;;;;;;20.47;3.60;;;;;;;2.04;84.20;100802.63;5103127;28;20034;-56
2022/04/09 04:47:23;;;;;;;17.83;3.30;;;;;;;2.05;84.44;100809.53;5107678;28;20028;-55
2022/04/09 04:49:49;;;;;;;16.80;3.60;;;;;;;2.00;84.44;100808.09;5100625;28;20421;-56
2022/04/09 04:52:14;;;;;;;18.63;3.70;;;;;;;2.01;84.43;100822.81;5102872;28;20070;-56
2022/04/09 04:54:39;;;;;;;16.37;3.60;;;;;;;2.03;84.43;100817.50;5105186;28;20119;-56
2022/04/09 04:57:04;;;;;;;15.50;3.83;;;;;;;2.01;84.41;100821.97;5103717;28;20377;-57
2022/04/09 04:59:30;;;;;;;19.93;3.83;;;;;;;2.02;84.69;100826.25;5104420;28;20369;-56
2022/04/09 05:01:55;;;;;;;17.73;3.30;;;;;;;2.01;84.45;100830.69;5100768;28;20027;-56
2022/04/09 05:04:20;;;;;;;16.70;3.97;;;;;;;2.03;84.42;100832.34;5104276;28;20042;-55
2022/04/09 05:06:46;;;;;;;18.63;3.63;;;;;;;2.06;84.50;100837.38;5102700;28;20462;-56
2022/04/09 05:09:13;;;;;;;17.50;3.57;;;;;;;2.08;84.23;100846.75;5097777;28;20035;-57
2022/04/09 05:11:39;;;;;;;19.67;3.97;;;;;;;2.07;84.33;100852.94;5102439;28;20027;-56
2022/04/09 05:14:04;;;;;;;15.43;3.80;;;;;;;2.06;84.32;100848.66;5102957;28;20035;-56
2022/04/09 05:16:29;;;;;;;16.57;3.30;;;;;;;2.08;83.98;100857.22;5101544;28;20028;-56
2022/04/09 05:18:55;;;;;;;16.97;3.40;;;;;;;2.08;83.94;100862.47;5100235;28;20995;-56
2022/04/09 05:21:20;;;;;;;13.93;3.30;;;;;;;2.09;84.20;100866.78;5102106;28;20028;-57
2022/04/09 05:23:45;;;;;;;18.77;4.10;;;;;;;2.08;84.33;100872.09;5101923;28;20079;-57
2022/04/09 05:26:11;;;;;;;12.53;3.47;;;;;;;2.12;84.26;100866.56;5102726;28;20031;-56
2022/04/09 05:28:36;;;;;;;18.53;3.40;;;;;;;2.23;83.23;100885.91;5101609;28;20032;-56
2022/04/09 05:31:03;;;;;;;15.17;3.90;;;;;;;2.18;84.18;100883.63;5102511;28;20032;-56
2022/04/09 05:33:28;;;;;;;19.53;4.43;;;;;;;2.21;83.86;100888.63;5103975;28;20505;-56
2022/04/09 05:35:54;;;;;;;17.60;4.10;;;;;;;2.19;84.48;100890.53;5101672;28;20031;-55
2022/04/09 05:38:20;;;;;;;17.10;3.53;;;;;;;2.21;84.11;100891.25;5100985;28;20047;-56
2022/04/09 05:40:45;;;;;;;18.60;3.70;;;;;;;2.24;84.40;100898.06;5106608;28;20019;-56
2022/04/09 05:43:11;;;;;;;14.30;3.40;;;;;;;2.28;84.34;100910.81;5109740;28;20035;-57
2022/04/09 05:45:37;;;;;;;21.60;4.07;;;;;;;2.34;84.16;100906.09;5099388;28;20381;-57
2022/04/09 05:48:03;;;;;;;16.73;3.87;;;;;;;2.41;84.31;100910.81;5106945;28;20043;-59
2022/04/09 05:50:28;;;;;;;14.63;3.87;;;;;;;2.47;83.99;100920.00;5099307;28;20032;-56
2022/04/09 05:52:54;;;;;;;16.27;3.57;;;;;;;2.52;83.73;100920.53;5096934;28;20059;-56
2022/04/09 05:55:19;;;;;;;19.10;3.57;;;;;;;2.64;83.68;100925.84;5108698;28;20024;-55
2022/04/09 05:57:45;;;;;;;19.73;3.80;;;;;;;2.71;83.57;100932.31;5099919;28;20050;-56
2022/04/09 06:00:11;;;;;;;19.53;3.77;;;;;;;2.80;83.75;100936.09;5104523;28;20393;-56
2022/04/09 06:02:39;;;;;;;21.20;3.90;;;;;;;2.87;83.20;100942.59;5113292;27;20418;-56
2022/04/09 06:05:08;;;;;;;23.80;3.90;;;;;;;2.93;83.13;100936.06;5113139;28;20030;-56
2022/04/09 06:07:33;;;;;;;17.83;3.53;;;;;;;3.06;82.75;100947.34;5102619;28;20040;-56
2022/04/09 06:09:59;;;;;;;20.23;3.50;;;;;;;3.14;82.00;100959.03;5107117;28;20577;-56
2022/04/09 06:12:24;;;;;;;15.50;3.47;;;;;;;3.12;82.30;100950.47;5098573;28;20474;-56
2022/04/09 06:14:49;;;;;;;18.60;3.80;;;;;;;3.23;82.39;100955.78;5112064;28;20061;-56
2022/04/09 06:17:15;;;;;;;19.83;3.70;;;;;;;3.29;81.91;100957.94;5103941;28;20106;-56
2022/04/09 06:19:40;;;;;;;20.33;4.20;;;;;;;3.32;82.10;100957.75;5106997;28;20032;-56
2022/04/09 06:22:05;;;;;;;19.40;3.67;;;;;;;3.30;82.42;100959.63;5104619;28;20027;-55
2022/04/09 06:24:31;;;;;;;20.33;4.10;;;;;;;3.42;82.04;100967.53;5113048;28;20038;-56
2022/04/09 06:26:56;;;;;;;18.50;3.67;;;;;;;3.48;82.82;100970.56;5113526;28;20024;-57
2022/04/09 06:29:21;;;;;;;18.53;3.80;;;;;;;3.57;82.73;100984.81;5110482;28;20024;-55
2022/04/09 06:31:47;;;;;;;16.80;3.77;;;;;;;3.60;82.12;100987.19;5111827;28;20028;-56
2022/04/09 06:34:14;;;;;;;16.17;3.27;;;;;;;3.81;82.32;100988.34;5106450;28;20413;-56
2022/04/09 06:36:39;;;;;;;19.97;3.90;;;;;;;3.82;82.84;100990.00;5107950;28;20042;-56
2022/04/09 06:39:05;;;;;;;17.03;3.63;;;;;;;3.88;83.26;100985.16;5101523;28;20039;-57
2022/04/09 06:41:30;;;;;;;15.33;3.60;;;;;;;3.88;82.28;100993.03;5111799;28;20125;-56
2022/04/09 06:43:56;;;;;;;16.37;4.10;;;;;;;4.00;82.28;100995.69;5103916;28;20039;-57
2022/04/09 06:46:21;;;;;;;17.70;3.60;;;;;;;4.05;81.58;100996.19;5114836;28;20392;-55
2022/04/09 06:48:46;;;;;;;21.97;4.80;;;;;;;4.21;81.59;101000.28;5111331;28;20096;-56
2022/04/09 06:51:12;;;;;;;16.80;3.50;;;;;;;4.34;82.78;100995.75;5103885;28;20044;-56
2022/04/09 06:53:38;;;;;;;15.43;3.93;;;;;;;4.48;81.68;101001.78;5107294;28;20036;-56
2022/04/09 06:56:06;;;;;;;21.38;4.03;;;;;;;4.59;81.67;101004.38;5103170;28;20445;-55
2022/04/09 06:58:33;;;;;;;19.48;3.97;;;;;;;4.68;81.66;101001.06;5108317;28;20031;-56
2022/04/09 07:00:59;;;;;;;17.15;4.45;;;;;;;4.65;82.50;101006.56;5111104;28;20085;-55
2022/04/09 07:03:24;;;;;;;17.38;4.05;;;;;;;4.64;81.06;101006.69;5111417;28;20461;-56
2022/04/09 07:05:49;;;;;;;18.10;3.40;;;;;;;4.66;81.00;101016.13;5109164;28;20034;-56
2022/04/09 07:08:14;;;;;;;14.50;3.10;;;;;;;4.60;81.08;101021.00;5102655;28;20481;-56
2022/04/09 07:10:40;;;;;;;16.52;3.10;;;;;;;4.58;80.64;101021.09;5104152;28;20098;-57
2022/04/09 07:13:05;;;;;;;15.77;3.13;;;;;;;4.65;80.04;101030.22;5102820;28;20073;-56
2022/04/09 07:15:32;;;;;;;18.42;3.78;;;;;;;4.49;80.49;101030.50;5102635;28;20059;-56
2022/04/09 07:17:58;;;;;;;18.23;3.67;;;;;;;4.49;80.63;101034.94;5109303;28;20073;-56
2022/04/09 07:20:23;;;;;;;14.52;3.72;;;;;;;4.47;79.87;101049.97;5111680;28;20027;-56
2022/04/09 07:22:48;;;;;;;13.73;3.20;;;;;;;4.49;80.11;101045.47;5103732;28;20107;-56
2022/04/09 07:25:16;;;;;;;11.60;3.10;;;;;;;4.47;79.67;101052.59;5107936;28;20062;-58
2022/04/09 07:27:43;;;;;;;16.30;3.80;;;;;;;4.42;81.00;101053.78;5109342;28;20042;-56
2022/04/09 07:30:14;;;;;;;14.68;3.53;;;;;;;4.40;81.44;101047.81;5100325;28;20020;-56
2022/04/09 07:32:40;;;;;;;16.27;3.40;;;;;;;4.55;80.62;101060.75;5102320;28;20102;-56
2022/04/09 07:35:05;;;;;;;15.77;3.92;;;;;;;4.66;80.73;101058.16;5103898;28;20369;-57
2022/04/09 07:37:31;;;;;;;14.93;3.60;;;;;;;4.75;80.49;101066.25;5109951;28;20023;-56
2022/04/09 07:39:56;;;;;;;16.63;3.70;;;;;;;4.85;80.81;101064.59;5102627;28;20389;-57
2022/04/09 07:42:22;;;;;;;20.70;3.80;;;;;;;5.01;80.87;101068.66;5111678;28;20106;-56
2022/04/09 07:44:48;;;;;;;16.02;4.28;;;;;;;5.11;79.80;101073.09;5111517;28;20023;-56
2022/04/09 07:47:14;;;;;;;16.08;4.10;;;;;;;5.21;81.26;101067.97;5098027;28;20042;-56
2022/04/09 07:49:40;;;;;;;17.98;4.13;;;;;;;5.27;78.33;101071.06;5105195;28;20069;-57
2022/04/09 07:52:05;;;;;;;20.65;4.10;;;;;;;5.47;79.56;101070.31;5103277;28;20490;-56
2022/04/09 07:54:32;;;;;;;18.90;4.10;;;;;;;5.45;78.29;101072.22;5106362;28;20032;-56
2022/04/09 07:56:57;;;;;;;18.48;4.20;;;;;;;5.54;79.82;101067.19;5107121;28;20126;-56
2022/04/09 07:59:22;;;;;;;13.30;3.50;;;;;;;5.66;76.68;101071.47;5100668;28;20054;-56
2022/04/09 08:01:48;;;;;;;19.45;4.03;;;;;;;5.76;78.02;101077.66;5102493;28;20035;-56
2022/04/09 08:04:13;;;;;;;16.05;3.60;;;;;;;5.91;77.60;101080.00;5106571;28;20024;-58
2022/04/09 08:06:38;;;;;;;13.77;3.10;;;;;;;6.07;74.41;101074.34;5107255;28;20031;-57
2022/04/09 08:09:04;;;;;;;12.85;3.75;;;;;;;6.19;75.82;101075.16;5110755;28;20405;-56
2022/04/09 08:11:29;;;;;;;12.07;2.85;;;;;;;6.25;74.60;101072.00;5108549;28;20088;-56
2022/04/09 08:13:55;;;;;;;19.15;4.30;;;;;;;6.36;75.18;101078.19;5109852;28;20028;-56
2022/04/09 08:16:20;;;;;;;15.32;3.50;;;;;;;6.45;73.27;101080.88;5111957;28;20023;-56
2022/04/09 08:18:45;;;;;;;15.73;3.83;;;;;;;6.53;73.60;101082.03;5108582;28;20023;-56
2022/04/09 08:21:10;;;;;;;12.10;3.70;;;;;;;6.71;72.85;101080.47;5098006;28;20480;-56
2022/04/09 08:23:36;;;;;;;15.10;3.85;;;;;;;6.69;72.22;101082.41;5107397;28;20020;-56
2022/04/09 08:26:01;;;;;;;10.43;3.00;;;;;;;6.80;70.84;101084.13;5111358;28;20028;-56
2022/04/09 08:28:30;;;;;;;14.98;3.40;;;;;;;6.88;71.09;101087.91;5097921;28;20078;-57
2022/04/09 08:30:55;;;;;;;13.13;3.00;;;;;;;7.02;67.83;101087.59;5106354;28;20546;-56
2022/04/09 08:33:21;;;;;;;11.18;2.75;;;;;;;7.11;64.96;101094.69;5104442;28;20040;-57
2022/04/09 08:35:47;;;;;;;13.93;2.90;;;;;;;7.09;66.18;101091.34;5100078;28;20076;-56
2022/04/09 08:38:12;;;;;;;10.00;2.38;;;;;;;7.12;64.23;101101.63;5106841;28;20032;-56
2022/04/09 08:40:38;;;;;;;7.30;2.33;;;;;;;7.20;64.43;101100.16;5105750;28;20676;-56
2022/04/09 08:43:04;;;;;;;8.10;2.05;;;;;;;7.25;59.71;101113.75;5113553;28;20024;-57
2022/04/09 08:45:35;;;;;;;4.28;1.88;;;;;;;7.43;60.43;101107.84;5108512;28;20076;-57
2022/04/09 08:48:02;;;;;;;6.85;1.90;;;;;;;7.46;59.52;101110.22;5106961;28;20593;-58
2022/04/09 08:50:28;;;;;;;4.97;1.67;;;;;;;7.57;57.33;101118.06;5104605;28;20103;-57
2022/04/09 08:52:54;;;;;;;6.28;2.13;;;;;;;7.72;57.23;101130.84;5104306;28;20032;-57
2022/04/09 08:55:19;;;;;;;7.65;1.85;;;;;;;7.72;57.25;101122.94;5111255;28;20054;-57
2022/04/09 08:57:46;;;;;;;9.00;2.08;;;;;;;7.66;56.21;101124.31;5112289;27;20063;-57
2022/04/09 09:00:13;;;;;;;11.75;2.45;;;;;;;7.44;58.32;101128.00;5103411;28;20051;-58
2022/04/09 09:02:56;;;;;;;8.27;2.55;;;;;;;7.42;59.06;101124.66;5109909;28;20058;-57
2022/04/09 09:05:34;;;;;;;9.93;2.50;;;;;;;7.42;59.11;101132.56;5106894;28;20031;-57
2022/04/09 09:08:00;;;;;;;8.85;2.00;;;;;;;7.26;57.46;101139.19;5103219;28;20042;-57
2022/04/09 09:10:25;;;;;;;8.55;2.10;;;;;;;7.18;57.57;101136.34;5101578;28;20074;-58
2022/04/09 09:12:58;;;;;;;9.45;2.20;;;;;;;7.12;58.13;101143.00;5105457;28;20023;-58
2022/04/09 09:15:23;;;;;;;8.48;2.30;;;;;;;7.09;61.29;101138.81;5105443;28;20038;-56
2022/04/09 09:17:55;;;;;;;7.80;1.98;;;;;;;7.39;61.25;101145.06;5105241;28;20031;-57
2022/04/09 09:20:21;;;;;;;6.07;2.17;;;;;;;7.58;56.13;101151.38;5104127;28;20446;-58
2022/04/09 09:22:48;;;;;;;5.00;1.70;;;;;;;7.68;56.10;101161.97;5105677;28;20038;-57
2022/04/09 09:25:13;;;;;;;7.57;2.00;;;;;;;7.53;56.23;101177.34;5106761;28;20042;-57
2022/04/09 09:27:40;;;;;;;4.38;1.42;;;;;;;7.43;58.20;101176.44;5108090;28;20107;-57
2022/04/09 09:30:07;;;;;;;5.18;1.50;;;;;;;7.10;60.13;101180.06;5098773;28;20102;-56
2022/04/09 09:32:34;;;;;;;6.45;1.80;;;;;;;6.81;60.87;101178.06;5106055;28;20579;-58
2022/04/09 09:34:59;;;;;;;4.85;1.75;;;;;;;6.64;61.59;101178.63;5103813;28;20115;-57
2022/04/09 09:37:28;;;;;;;5.22;1.80;;;;;;;6.48;62.35;101182.53;5103722;28;20207;-57
2022/04/09 09:39:54;;;;;;;5.28;1.90;;;;;;;6.43;60.96;101169.72;5104651;28;20038;-57
2022/04/09 09:42:20;;;;;;;10.50;1.92;;;;;;;6.39;62.38;101184.13;5104367;28;20032;-57
2022/04/09 09:44:46;;;;;;;6.25;1.90;;;;;;;6.55;60.86;101178.44;5108940;28;20031;-57
2022/04/09 09:47:12;;;;;;;2.88;1.83;;;;;;;6.55;62.70;101175.81;5105172;28;20390;-57
2022/04/09 09:49:58;;;;;;;6.00;2.05;;;;;;;6.94;61.76;101169.13;5104098;28;20385;-57
2022/04/09 09:52:26;;;;;;;3.03;1.60;;;;;;;7.12;61.22;101164.91;5106773;28;20040;-57
2022/04/09 09:54:57;;;;;;;7.93;2.00;;;;;;;7.21;59.89;101173.03;5106232;28;20012;-57
2022/04/09 09:57:25;;;;;;;5.45;1.92;;;;;;;7.25;57.58;101169.16;5100013;28;20035;-56
2022/04/09 09:59:53;;;;;;;5.95;2.20;;;;;;;7.49;57.70;101170.66;5105348;28;20067;-57
2022/04/09 10:02:21;;;;;;;4.72;1.70;;;;;;;7.79;56.57;101172.41;5101635;28;20027;-57
2022/04/09 10:04:47;;;;;;;5.00;1.50;;;;;;;7.83;53.51;101173.00;5106266;28;20019;-57
2022/04/09 10:07:14;;;;;;;5.38;1.92;;;;;;;7.97;54.69;101163.00;5101592;28;20039;-56
2022/04/09 10:09:40;;;;;;;7.75;1.65;;;;;;;8.23;54.09;101157.22;5104572;28;20056;-54
2022/04/09 10:12:10;;;;;;;6.10;1.70;;;;;;;8.51;52.71;101175.84;5107889;28;20024;-53
2022/04/09 10:14:39;;;;;;;3.78;1.42;;;;;;;8.64;50.93;101160.59;5101526;28;20043;-55
2022/04/09 10:17:06;;;;;;;3.78;1.42;;;;;;;8.50;48.66;101168.88;5105702;28;20040;-57
2022/04/09 10:19:32;;;;;;;4.78;1.77;;;;;;;8.45;50.59;101180.69;5099760;28;20137;-57
2022/04/09 10:21:58;;;;;;;6.05;2.03;;;;;;;8.56;50.64;101184.22;5102532;28;20493;-57
2022/04/09 10:24:26;;;;;;;7.43;1.83;;;;;;;8.66;51.46;101182.41;5104550;28;20680;-58
2022/04/09 10:26:56;;;;;;;3.13;1.50;;;;;;;8.92;51.63;101183.66;5102756;28;20089;-57
2022/04/09 10:29:21;;;;;;;4.85;1.60;;;;;;;9.06;51.30;101177.91;5095772;28;20059;-57
2022/04/09 10:31:51;;;;;;;6.30;1.70;;;;;;;9.14;52.74;101188.59;5101185;28;20462;-57
2022/04/09 10:34:17;;;;;;;5.25;1.58;;;;;;;9.19;48.30;101179.38;5106291;28;20111;-57
2022/04/09 10:36:42;;;;;;;5.22;1.52;;;;;;;9.27;48.60;101184.78;5109186;28;20524;-57
2022/04/09 10:39:23;;;;;;;3.72;1.70;;;;;;;9.28;48.19;101195.25;5104034;28;20045;-57
2022/04/09 10:41:53;;;;;;;4.75;1.15;;;;;;;9.44;46.71;101188.50;5099392;28;20032;-56
2022/04/09 10:44:43;;;;;;;4.00;1.30;;;;;;;9.41;49.49;101191.44;5111421;28;20537;-58
2022/04/09 10:47:11;;;;;;;4.80;1.55;;;;;;;9.35;47.88;101176.13;5096294;28;20051;-57
2022/04/09 10:49:37;;;;;;;3.95;1.73;;;;;;;9.32;47.39;101189.66;5104225;28;20038;-56
2022/04/09 10:52:04;;;;;;;3.55;1.58;;;;;;;9.28;47.99;101184.66;5106351;28;20059;-57
2022/04/09 10:54:29;;;;;;;5.03;1.35;;;;;;;9.41;44.92;101178.19;5101979;27;20074;-57
2022/04/09 10:57:05;;;;;;;1.80;1.05;;;;;;;9.54;45.60;101191.94;5101911;28;20024;-57
2022/04/09 10:59:31;;;;;;;2.45;1.48;;;;;;;9.54;45.78;101205.16;5102742;28;20446;-58
2022/04/09 11:01:56;;;;;;;2.97;1.42;;;;;;;9.41;45.00;101189.63;5104323;28;20035;-57
2022/04/09 11:04:37;;;;;;;5.90;1.75;;;;;;;9.44;47.79;101196.44;5111664;28;20016;-57
2022/04/09 11:07:03;;;;;;;3.40;1.00;;;;;;;9.51;44.45;101189.59;5107860;28;20097;-57
2022/04/09 11:09:45;;;;;;;3.00;1.50;;;;;;;9.55;45.91;101196.28;5104597;28;20093;-57
2022/04/09 11:12:15;;;;;;;4.70;1.63;;;;;;;9.60;44.88;101189.69;5100955;28;20028;-57
2022/04/09 11:14:55;;;;;;;2.65;1.30;;;;;;;9.58;44.75;101179.25;5101553;28;20532;-57
2022/04/09 11:17:28;;;;;;;5.80;1.17;;;;;;;9.71;47.40;101188.66;5104167;28;20032;-57
2022/04/09 11:19:54;;;;;;;;;;;;;;;10.08;44.74;101188.56;5101412;28;20702;-57
2022/04/09 11:22:20;;;;;;;2.95;1.55;;;;;;;9.89;45.64;101186.91;5102008;28;19980;-57
2022/04/09 11:24:45;;;;;;;2.80;1.10;;;;;;;10.09;43.64;101195.56;5095354;28;20138;-57
2022/04/09 11:27:11;;;;;;;2.78;1.20;;;;;;;9.94;41.21;101194.41;5100732;27;20031;-57